sensor_id;sensor_type;location;lat;lon;timestamp;temperature;humidity
47532;DHT22;33273;52.254;7.988;2023-03-21T00:01:15;8.60;93.40
47532;DHT22;33273;52.254;7.988;2023-03-21T00:03:41;8.60;93.40
47532;DHT22;33273;52.254;7.988;2023-03-21T00:06:08;8.60;93.30
47532;DHT22;33273;52.254;7.988;2023-03-21T00:08:35;8.60;93.40
47532;DHT22;33273;52.254;7.988;2023-03-21T00:11:02;8.60;93.50
47532;DHT22;33273;52.254;7.988;2023-03-21T00:13:29;8.60;93.20
47532;DHT22;33273;52.254;7.988;2023-03-21T00:16:10;8.60;93.30
47532;DHT22;33273;52.254;7.988;2023-03-21T00:18:40;8.60;94.10
47532;DHT22;33273;52.254;7.988;2023-03-21T00:21:07;8.60;93.70
47532;DHT22;33273;52.254;7.988;2023-03-21T00:23:34;8.60;93.90
47532;DHT22;33273;52.254;7.988;2023-03-21T00:26:02;8.60;93.90
47532;DHT22;33273;52.254;7.988;2023-03-21T00:28:29;8.60;93.80
47532;DHT22;33273;52.254;7.988;2023-03-21T00:30:58;8.60;93.90
47532;DHT22;33273;52.254;7.988;2023-03-21T00:33:26;8.60;94.00
47532;DHT22;33273;52.254;7.988;2023-03-21T00:35:51;8.70;94.30
47532;DHT22;33273;52.254;7.988;2023-03-21T00:38:18;8.70;94.40
47532;DHT22;33273;52.254;7.988;2023-03-21T00:40:44;8.70;94.40
47532;DHT22;33273;52.254;7.988;2023-03-21T00:43:09;8.70;94.30
47532;DHT22;33273;52.254;7.988;2023-03-21T00:45:36;8.70;94.10
47532;DHT22;33273;52.254;7.988;2023-03-21T00:48:03;8.70;94.00
47532;DHT22;33273;52.254;7.988;2023-03-21T00:50:29;8.80;94.00
47532;DHT22;33273;52.254;7.988;2023-03-21T00:52:54;8.70;93.80
47532;DHT22;33273;52.254;7.988;2023-03-21T00:55:23;8.70;93.60
47532;DHT22;33273;52.254;7.988;2023-03-21T00:57:49;8.70;93.50
47532;DHT22;33273;52.254;7.988;2023-03-21T01:00:17;8.80;93.50
47532;DHT22;33273;52.254;7.988;2023-03-21T01:02:44;8.80;93.30
47532;DHT22;33273;52.254;7.988;2023-03-21T01:05:23;8.80;93.10
47532;DHT22;33273;52.254;7.988;2023-03-21T01:08:09;8.80;92.90
47532;DHT22;33273;52.254;7.988;2023-03-21T01:10:37;8.80;92.80
47532;DHT22;33273;52.254;7.988;2023-03-21T01:13:03;8.80;92.80
47532;DHT22;33273;52.254;7.988;2023-03-21T01:15:28;8.80;92.70
47532;DHT22;33273;52.254;7.988;2023-03-21T01:17:54;8.80;92.50
47532;DHT22;33273;52.254;7.988;2023-03-21T01:20:20;8.80;92.40
47532;DHT22;33273;52.254;7.988;2023-03-21T01:22:46;8.80;92.30
47532;DHT22;33273;52.254;7.988;2023-03-21T01:25:12;8.80;92.10
47532;DHT22;33273;52.254;7.988;2023-03-21T01:27:38;8.80;92.40
47532;DHT22;33273;52.254;7.988;2023-03-21T01:30:04;8.80;92.40
47532;DHT22;33273;52.254;7.988;2023-03-21T01:32:32;8.80;92.20
47532;DHT22;33273;52.254;7.988;2023-03-21T01:34:57;8.80;92.10
47532;DHT22;33273;52.254;7.988;2023-03-21T01:37:23;8.80;92.10
47532;DHT22;33273;52.254;7.988;2023-03-21T01:39:51;8.90;92.10
47532;DHT22;33273;52.254;7.988;2023-03-21T01:42:17;8.90;91.90
47532;DHT22;33273;52.254;7.988;2023-03-21T01:44:56;8.90;91.60
47532;DHT22;33273;52.254;7.988;2023-03-21T01:47:24;8.90;91.40
47532;DHT22;33273;52.254;7.988;2023-03-21T01:50:04;8.90;91.50
47532;DHT22;33273;52.254;7.988;2023-03-21T01:52:41;8.90;91.70
47532;DHT22;33273;52.254;7.988;2023-03-21T01:55:14;8.90;91.80
47532;DHT22;33273;52.254;7.988;2023-03-21T01:57:57;8.90;91.80
47532;DHT22;33273;52.254;7.988;2023-03-21T02:00:25;8.90;91.70
47532;DHT22;33273;52.254;7.988;2023-03-21T02:03:04;8.90;91.70
47532;DHT22;33273;52.254;7.988;2023-03-21T02:08:16;8.90;91.80
47532;DHT22;33273;52.254;7.988;2023-03-21T02:10:42;9.00;91.70
47532;DHT22;33273;52.254;7.988;2023-03-21T02:13:13;8.90;91.60
47532;DHT22;33273;52.254;7.988;2023-03-21T02:15:41;8.90;91.80
47532;DHT22;33273;52.254;7.988;2023-03-21T02:18:26;8.90;91.90
47532;DHT22;33273;52.254;7.988;2023-03-21T02:34:59;9.00;91.90
47532;DHT22;33273;52.254;7.988;2023-03-21T02:40:11;9.00;92.50
47532;DHT22;33273;52.254;7.988;2023-03-21T02:47:37;9.00;93.00
47532;DHT22;33273;52.254;7.988;2023-03-21T02:50:14;9.00;93.10
47532;DHT22;33273;52.254;7.988;2023-03-21T02:52:43;9.00;92.90
47532;DHT22;33273;52.254;7.988;2023-03-21T02:55:14;9.00;92.70
47532;DHT22;33273;52.254;7.988;2023-03-21T02:57:54;9.00;92.60
47532;DHT22;33273;52.254;7.988;2023-03-21T03:00:22;9.00;92.60
47532;DHT22;33273;52.254;7.988;2023-03-21T03:02:49;9.00;92.80
47532;DHT22;33273;52.254;7.988;2023-03-21T03:05:21;9.00;93.60
47532;DHT22;33273;52.254;7.988;2023-03-21T03:10:20;9.10;93.40
47532;DHT22;33273;52.254;7.988;2023-03-21T03:13:06;9.00;93.30
47532;DHT22;33273;52.254;7.988;2023-03-21T03:15:41;9.00;93.20
47532;DHT22;33273;52.254;7.988;2023-03-21T03:18:20;9.00;93.20
47532;DHT22;33273;52.254;7.988;2023-03-21T03:20:59;9.10;93.20
47532;DHT22;33273;52.254;7.988;2023-03-21T03:26:16;9.10;93.20
47532;DHT22;33273;52.254;7.988;2023-03-21T03:28:46;9.10;93.40
47532;DHT22;33273;52.254;7.988;2023-03-21T03:31:17;9.10;93.90
47532;DHT22;33273;52.254;7.988;2023-03-21T03:33:51;9.00;94.10
47532;DHT22;33273;52.254;7.988;2023-03-21T03:36:19;9.00;94.40
47532;DHT22;33273;52.254;7.988;2023-03-21T03:38:48;9.00;94.60
47532;DHT22;33273;52.254;7.988;2023-03-21T03:41:20;9.10;94.70
47532;DHT22;33273;52.254;7.988;2023-03-21T03:43:54;9.00;94.70
47532;DHT22;33273;52.254;7.988;2023-03-21T03:48:54;9.00;95.00
47532;DHT22;33273;52.254;7.988;2023-03-21T03:51:26;9.10;95.10
47532;DHT22;33273;52.254;7.988;2023-03-21T03:54:18;9.10;95.50
47532;DHT22;33273;52.254;7.988;2023-03-21T03:56:48;9.00;95.80
47532;DHT22;33273;52.254;7.988;2023-03-21T03:59:15;9.00;96.10
47532;DHT22;33273;52.254;7.988;2023-03-21T04:02:10;9.00;96.30
47532;DHT22;33273;52.254;7.988;2023-03-21T04:04:36;9.10;96.60
47532;DHT22;33273;52.254;7.988;2023-03-21T04:07:03;9.10;96.80
47532;DHT22;33273;52.254;7.988;2023-03-21T04:09:29;9.10;97.10
47532;DHT22;33273;52.254;7.988;2023-03-21T04:11:55;9.00;97.70
47532;DHT22;33273;52.254;7.988;2023-03-21T04:14:22;9.00;98.60
47532;DHT22;33273;52.254;7.988;2023-03-21T04:16:49;9.00;99.30
47532;DHT22;33273;52.254;7.988;2023-03-21T04:19:15;9.00;99.90
47532;DHT22;33273;52.254;7.988;2023-03-21T04:21:41;9.00;99.90
47532;DHT22;33273;52.254;7.988;2023-03-21T04:24:08;9.00;99.90
47532;DHT22;33273;52.254;7.988;2023-03-21T04:26:34;9.00;99.90
47532;DHT22;33273;52.254;7.988;2023-03-21T04:29:19;9.00;99.90
47532;DHT22;33273;52.254;7.988;2023-03-21T04:32:03;8.90;99.90
47532;DHT22;33273;52.254;7.988;2023-03-21T04:34:30;8.90;99.90
47532;DHT22;33273;52.254;7.988;2023-03-21T04:37:00;8.90;99.90
47532;DHT22;33273;52.254;7.988;2023-03-21T04:39:26;8.90;99.90
47532;DHT22;33273;52.254;7.988;2023-03-21T04:41:52;8.90;99.90
47532;DHT22;33273;52.254;7.988;2023-03-21T04:44:18;8.90;99.90
47532;DHT22;33273;52.254;7.988;2023-03-21T04:46:45;8.90;99.90
47532;DHT22;33273;52.254;7.988;2023-03-21T04:49:11;8.90;99.90
47532;DHT22;33273;52.254;7.988;2023-03-21T04:51:41;8.90;99.90
47532;DHT22;33273;52.254;7.988;2023-03-21T04:54:10;9.00;99.90
47532;DHT22;33273;52.254;7.988;2023-03-21T04:56:38;8.90;99.90
47532;DHT22;33273;52.254;7.988;2023-03-21T04:59:09;9.00;99.90
47532;DHT22;33273;52.254;7.988;2023-03-21T05:01:35;9.00;99.90
47532;DHT22;33273;52.254;7.988;2023-03-21T05:04:02;8.90;99.90
47532;DHT22;33273;52.254;7.988;2023-03-21T05:06:30;8.90;99.90
47532;DHT22;33273;52.254;7.988;2023-03-21T05:08:57;9.00;99.90
47532;DHT22;33273;52.254;7.988;2023-03-21T05:11:26;9.00;99.90
47532;DHT22;33273;52.254;7.988;2023-03-21T05:13:52;8.90;99.90
47532;DHT22;33273;52.254;7.988;2023-03-21T05:16:18;8.90;99.90
47532;DHT22;33273;52.254;7.988;2023-03-21T05:18:45;9.00;99.90
47532;DHT22;33273;52.254;7.988;2023-03-21T05:21:17;9.00;99.90
47532;DHT22;33273;52.254;7.988;2023-03-21T05:23:46;9.00;99.90
47532;DHT22;33273;52.254;7.988;2023-03-21T05:26:19;9.00;99.90
47532;DHT22;33273;52.254;7.988;2023-03-21T05:28:53;8.90;99.90
47532;DHT22;33273;52.254;7.988;2023-03-21T05:31:20;9.00;99.90
47532;DHT22;33273;52.254;7.988;2023-03-21T05:33:50;9.00;99.90
47532;DHT22;33273;52.254;7.988;2023-03-21T05:36:17;9.00;99.90
47532;DHT22;33273;52.254;7.988;2023-03-21T05:38:46;9.00;99.90
47532;DHT22;33273;52.254;7.988;2023-03-21T05:41:13;9.00;99.90
47532;DHT22;33273;52.254;7.988;2023-03-21T05:43:39;9.00;99.90
47532;DHT22;33273;52.254;7.988;2023-03-21T05:46:05;9.00;99.90
47532;DHT22;33273;52.254;7.988;2023-03-21T05:48:32;9.00;99.90
47532;DHT22;33273;52.254;7.988;2023-03-21T05:51:10;9.00;99.90
47532;DHT22;33273;52.254;7.988;2023-03-21T05:53:37;9.10;99.90
47532;DHT22;33273;52.254;7.988;2023-03-21T05:56:03;9.00;99.90
47532;DHT22;33273;52.254;7.988;2023-03-21T05:58:47;9.00;99.90
47532;DHT22;33273;52.254;7.988;2023-03-21T06:01:14;9.00;99.90
47532;DHT22;33273;52.254;7.988;2023-03-21T06:03:46;9.00;99.90
47532;DHT22;33273;52.254;7.988;2023-03-21T06:06:22;9.00;99.90
47532;DHT22;33273;52.254;7.988;2023-03-21T06:08:57;9.00;99.90
47532;DHT22;33273;52.254;7.988;2023-03-21T06:11:24;9.00;99.90
47532;DHT22;33273;52.254;7.988;2023-03-21T06:14:00;9.10;99.90
47532;DHT22;33273;52.254;7.988;2023-03-21T06:16:27;9.10;99.90
47532;DHT22;33273;52.254;7.988;2023-03-21T06:18:53;9.10;99.90
47532;DHT22;33273;52.254;7.988;2023-03-21T06:21:34;9.10;99.90
47532;DHT22;33273;52.254;7.988;2023-03-21T06:24:00;9.10;99.90
47532;DHT22;33273;52.254;7.988;2023-03-21T06:26:26;9.10;99.90
47532;DHT22;33273;52.254;7.988;2023-03-21T06:28:53;9.10;99.90
47532;DHT22;33273;52.254;7.988;2023-03-21T06:31:19;9.10;99.90
47532;DHT22;33273;52.254;7.988;2023-03-21T06:33:48;9.20;99.90
47532;DHT22;33273;52.254;7.988;2023-03-21T06:36:13;9.10;99.90
47532;DHT22;33273;52.254;7.988;2023-03-21T06:38:40;9.10;99.90
47532;DHT22;33273;52.254;7.988;2023-03-21T06:41:08;9.10;99.90
47532;DHT22;33273;52.254;7.988;2023-03-21T06:43:40;9.10;99.90
47532;DHT22;33273;52.254;7.988;2023-03-21T06:46:06;9.10;99.90
47532;DHT22;33273;52.254;7.988;2023-03-21T06:48:32;9.10;99.90
47532;DHT22;33273;52.254;7.988;2023-03-21T06:50:58;9.20;99.90
47532;DHT22;33273;52.254;7.988;2023-03-21T06:53:26;9.20;99.90
47532;DHT22;33273;52.254;7.988;2023-03-21T06:56:11;9.20;99.90
47532;DHT22;33273;52.254;7.988;2023-03-21T06:58:39;9.30;99.90
47532;DHT22;33273;52.254;7.988;2023-03-21T07:01:08;9.30;99.90
47532;DHT22;33273;52.254;7.988;2023-03-21T07:03:43;9.30;99.90
47532;DHT22;33273;52.254;7.988;2023-03-21T07:06:10;9.30;99.90
47532;DHT22;33273;52.254;7.988;2023-03-21T07:08:39;9.30;99.90
47532;DHT22;33273;52.254;7.988;2023-03-21T07:11:05;9.30;99.90
47532;DHT22;33273;52.254;7.988;2023-03-21T07:13:31;9.30;99.90
47532;DHT22;33273;52.254;7.988;2023-03-21T07:16:02;9.30;99.90
47532;DHT22;33273;52.254;7.988;2023-03-21T07:18:34;9.30;99.90
47532;DHT22;33273;52.254;7.988;2023-03-21T07:21:00;9.30;99.90
47532;DHT22;33273;52.254;7.988;2023-03-21T07:23:26;9.30;99.90
47532;DHT22;33273;52.254;7.988;2023-03-21T07:25:53;9.30;99.90
47532;DHT22;33273;52.254;7.988;2023-03-21T07:28:19;9.30;99.90
47532;DHT22;33273;52.254;7.988;2023-03-21T07:30:50;9.40;99.90
47532;DHT22;33273;52.254;7.988;2023-03-21T07:33:16;9.40;99.90
47532;DHT22;33273;52.254;7.988;2023-03-21T07:35:42;9.50;99.90
47532;DHT22;33273;52.254;7.988;2023-03-21T07:38:08;9.50;99.90
47532;DHT22;33273;52.254;7.988;2023-03-21T07:40:34;9.60;99.90
47532;DHT22;33273;52.254;7.988;2023-03-21T07:43:01;9.60;99.90
47532;DHT22;33273;52.254;7.988;2023-03-21T07:45:31;9.60;99.90
47532;DHT22;33273;52.254;7.988;2023-03-21T07:47:57;9.60;99.90
47532;DHT22;33273;52.254;7.988;2023-03-21T07:50:22;9.50;99.90
47532;DHT22;33273;52.254;7.988;2023-03-21T07:52:48;9.60;99.90
47532;DHT22;33273;52.254;7.988;2023-03-21T07:55:14;9.70;99.90
47532;DHT22;33273;52.254;7.988;2023-03-21T07:57:41;9.70;99.90
47532;DHT22;33273;52.254;7.988;2023-03-21T08:00:07;9.70;99.90
47532;DHT22;33273;52.254;7.988;2023-03-21T08:02:40;9.80;99.90
47532;DHT22;33273;52.254;7.988;2023-03-21T08:05:06;9.80;99.90
47532;DHT22;33273;52.254;7.988;2023-03-21T08:07:32;9.80;99.90
47532;DHT22;33273;52.254;7.988;2023-03-21T08:09:58;9.80;99.90
47532;DHT22;33273;52.254;7.988;2023-03-21T08:12:24;9.80;99.90
47532;DHT22;33273;52.254;7.988;2023-03-21T08:14:50;9.70;99.90
47532;DHT22;33273;52.254;7.988;2023-03-21T08:17:16;9.70;99.90
47532;DHT22;33273;52.254;7.988;2023-03-21T08:19:42;9.60;99.90
47532;DHT22;33273;52.254;7.988;2023-03-21T08:22:07;9.60;99.90
47532;DHT22;33273;52.254;7.988;2023-03-21T08:24:35;9.60;99.90
47532;DHT22;33273;52.254;7.988;2023-03-21T08:27:01;9.70;99.90
47532;DHT22;33273;52.254;7.988;2023-03-21T08:29:26;9.60;99.90
47532;DHT22;33273;52.254;7.988;2023-03-21T08:31:52;9.70;99.90
47532;DHT22;33273;52.254;7.988;2023-03-21T08:34:18;9.70;99.90
47532;DHT22;33273;52.254;7.988;2023-03-21T08:36:44;9.70;99.90
47532;DHT22;33273;52.254;7.988;2023-03-21T08:39:11;9.70;99.90
47532;DHT22;33273;52.254;7.988;2023-03-21T08:41:37;9.80;99.90
47532;DHT22;33273;52.254;7.988;2023-03-21T08:44:04;9.70;99.90
47532;DHT22;33273;52.254;7.988;2023-03-21T08:46:31;9.80;99.90
47532;DHT22;33273;52.254;7.988;2023-03-21T08:48:58;9.70;99.90
47532;DHT22;33273;52.254;7.988;2023-03-21T08:51:24;9.80;99.90
47532;DHT22;33273;52.254;7.988;2023-03-21T08:53:51;9.80;99.90
47532;DHT22;33273;52.254;7.988;2023-03-21T08:56:17;9.80;99.90
47532;DHT22;33273;52.254;7.988;2023-03-21T08:58:43;9.80;99.90
47532;DHT22;33273;52.254;7.988;2023-03-21T09:01:10;9.80;99.90
47532;DHT22;33273;52.254;7.988;2023-03-21T09:03:40;9.80;99.90
47532;DHT22;33273;52.254;7.988;2023-03-21T09:06:06;9.80;99.90
47532;DHT22;33273;52.254;7.988;2023-03-21T09:08:38;9.90;99.90
47532;DHT22;33273;52.254;7.988;2023-03-21T09:11:08;9.90;99.90
47532;DHT22;33273;52.254;7.988;2023-03-21T09:13:34;10.00;99.90
47532;DHT22;33273;52.254;7.988;2023-03-21T09:16:00;10.00;99.90
47532;DHT22;33273;52.254;7.988;2023-03-21T09:18:26;10.10;99.90
47532;DHT22;33273;52.254;7.988;2023-03-21T09:21:10;10.20;99.90
47532;DHT22;33273;52.254;7.988;2023-03-21T09:23:38;10.20;99.90
47532;DHT22;33273;52.254;7.988;2023-03-21T09:26:04;10.20;99.90
47532;DHT22;33273;52.254;7.988;2023-03-21T09:28:30;10.30;99.90
47532;DHT22;33273;52.254;7.988;2023-03-21T09:30:57;10.30;99.90
47532;DHT22;33273;52.254;7.988;2023-03-21T09:33:26;10.40;99.90
47532;DHT22;33273;52.254;7.988;2023-03-21T09:35:54;10.40;99.90
47532;DHT22;33273;52.254;7.988;2023-03-21T09:38:20;10.40;99.90
47532;DHT22;33273;52.254;7.988;2023-03-21T09:40:54;10.40;99.90
47532;DHT22;33273;52.254;7.988;2023-03-21T09:45:59;10.40;99.90
47532;DHT22;33273;52.254;7.988;2023-03-21T09:49:09;10.40;99.90
47532;DHT22;33273;52.254;7.988;2023-03-21T09:51:16;10.40;99.90
47532;DHT22;33273;52.254;7.988;2023-03-21T09:53:43;10.50;99.90
47532;DHT22;33273;52.254;7.988;2023-03-21T09:56:11;10.40;99.90
47532;DHT22;33273;52.254;7.988;2023-03-21T09:58:43;10.50;99.90
47532;DHT22;33273;52.254;7.988;2023-03-21T10:03:47;10.40;99.90
47532;DHT22;33273;52.254;7.988;2023-03-21T10:06:14;10.50;99.90
47532;DHT22;33273;52.254;7.988;2023-03-21T10:08:42;10.40;99.90
47532;DHT22;33273;52.254;7.988;2023-03-21T10:11:17;10.50;99.90
47532;DHT22;33273;52.254;7.988;2023-03-21T10:13:48;10.50;99.90
47532;DHT22;33273;52.254;7.988;2023-03-21T10:16:39;10.50;99.90
47532;DHT22;33273;52.254;7.988;2023-03-21T10:19:03;10.60;99.90
47532;DHT22;33273;52.254;7.988;2023-03-21T10:21:29;10.60;99.90
47532;DHT22;33273;52.254;7.988;2023-03-21T10:23:56;10.60;99.90
47532;DHT22;33273;52.254;7.988;2023-03-21T10:26:23;10.60;99.90
47532;DHT22;33273;52.254;7.988;2023-03-21T10:28:51;10.60;99.90
47532;DHT22;33273;52.254;7.988;2023-03-21T10:31:17;10.70;99.90
47532;DHT22;33273;52.254;7.988;2023-03-21T10:33:45;10.70;99.90
47532;DHT22;33273;52.254;7.988;2023-03-21T10:36:13;10.70;99.90
47532;DHT22;33273;52.254;7.988;2023-03-21T10:38:46;10.80;99.90
47532;DHT22;33273;52.254;7.988;2023-03-21T10:41:13;10.70;99.90
47532;DHT22;33273;52.254;7.988;2023-03-21T10:43:39;10.70;99.90
47532;DHT22;33273;52.254;7.988;2023-03-21T10:46:06;10.70;99.90
47532;DHT22;33273;52.254;7.988;2023-03-21T10:48:36;10.80;99.90
47532;DHT22;33273;52.254;7.988;2023-03-21T10:51:05;10.80;99.90
47532;DHT22;33273;52.254;7.988;2023-03-21T10:53:34;10.80;99.90
47532;DHT22;33273;52.254;7.988;2023-03-21T10:56:01;10.80;99.90
47532;DHT22;33273;52.254;7.988;2023-03-21T10:58:28;10.80;99.90
47532;DHT22;33273;52.254;7.988;2023-03-21T11:00:55;10.70;99.90
47532;DHT22;33273;52.254;7.988;2023-03-21T11:03:39;10.70;99.90
47532;DHT22;33273;52.254;7.988;2023-03-21T11:08:40;10.80;99.90
47532;DHT22;33273;52.254;7.988;2023-03-21T11:11:09;10.80;99.90
47532;DHT22;33273;52.254;7.988;2023-03-21T11:13:39;10.70;99.90
47532;DHT22;33273;52.254;7.988;2023-03-21T11:16:20;10.70;99.90
47532;DHT22;33273;52.254;7.988;2023-03-21T11:18:51;10.80;99.90
47532;DHT22;33273;52.254;7.988;2023-03-21T11:21:17;10.70;99.90
47532;DHT22;33273;52.254;7.988;2023-03-21T11:23:44;10.70;99.90
47532;DHT22;33273;52.254;7.988;2023-03-21T11:26:25;10.70;99.90
47532;DHT22;33273;52.254;7.988;2023-03-21T11:28:53;10.70;99.90
47532;DHT22;33273;52.254;7.988;2023-03-21T11:31:19;10.80;99.90
47532;DHT22;33273;52.254;7.988;2023-03-21T11:38:42;10.80;99.90
47532;DHT22;33273;52.254;7.988;2023-03-21T11:41:08;10.80;99.90
47532;DHT22;33273;52.254;7.988;2023-03-21T11:43:51;10.80;99.90
47532;DHT22;33273;52.254;7.988;2023-03-21T11:46:22;10.80;99.90
47532;DHT22;33273;52.254;7.988;2023-03-21T11:48:48;10.90;99.90
47532;DHT22;33273;52.254;7.988;2023-03-21T11:54:03;11.00;99.90
47532;DHT22;33273;52.254;7.988;2023-03-21T11:56:32;11.00;99.90
47532;DHT22;33273;52.254;7.988;2023-03-21T12:01:30;11.00;99.90
47532;DHT22;33273;52.254;7.988;2023-03-21T12:04:04;11.10;99.90
47532;DHT22;33273;52.254;7.988;2023-03-21T12:06:36;11.10;99.90
47532;DHT22;33273;52.254;7.988;2023-03-21T12:14:02;11.10;99.90
47532;DHT22;33273;52.254;7.988;2023-03-21T12:16:32;11.10;99.90
47532;DHT22;33273;52.254;7.988;2023-03-21T12:19:03;11.10;99.90
47532;DHT22;33273;52.254;7.988;2023-03-21T12:29:35;11.30;99.90
47532;DHT22;33273;52.254;7.988;2023-03-21T12:32:09;11.20;99.90
47532;DHT22;33273;52.254;7.988;2023-03-21T12:35:01;11.10;99.90
47532;DHT22;33273;52.254;7.988;2023-03-21T12:37:33;11.10;99.90
47532;DHT22;33273;52.254;7.988;2023-03-21T12:40:08;11.10;99.90
47532;DHT22;33273;52.254;7.988;2023-03-21T12:42:56;11.10;99.90
47532;DHT22;33273;52.254;7.988;2023-03-21T12:45:29;11.30;99.90
47532;DHT22;33273;52.254;7.988;2023-03-21T12:48:02;11.30;99.90
47532;DHT22;33273;52.254;7.988;2023-03-21T12:50:31;11.30;99.90
47532;DHT22;33273;52.254;7.988;2023-03-21T12:53:11;11.30;99.90
47532;DHT22;33273;52.254;7.988;2023-03-21T12:55:38;11.30;99.90
47532;DHT22;33273;52.254;7.988;2023-03-21T12:58:15;11.30;99.90
47532;DHT22;33273;52.254;7.988;2023-03-21T13:00:54;11.30;99.90
47532;DHT22;33273;52.254;7.988;2023-03-21T13:03:22;11.30;99.90
47532;DHT22;33273;52.254;7.988;2023-03-21T13:05:57;11.30;99.90
47532;DHT22;33273;52.254;7.988;2023-03-21T13:08:27;11.30;99.70
47532;DHT22;33273;52.254;7.988;2023-03-21T13:10:56;11.30;98.80
47532;DHT22;33273;52.254;7.988;2023-03-21T13:20:53;11.40;99.00
47532;DHT22;33273;52.254;7.988;2023-03-21T13:23:20;11.50;99.20
47532;DHT22;33273;52.254;7.988;2023-03-21T13:25:48;11.50;99.10
47532;DHT22;33273;52.254;7.988;2023-03-21T13:28:26;11.60;98.90
47532;DHT22;33273;52.254;7.988;2023-03-21T13:30:52;11.60;99.40
47532;DHT22;33273;52.254;7.988;2023-03-21T13:33:28;11.60;97.10
47532;DHT22;33273;52.254;7.988;2023-03-21T13:36:04;11.60;97.90
47532;DHT22;33273;52.254;7.988;2023-03-21T13:38:32;11.60;97.10
47532;DHT22;33273;52.254;7.988;2023-03-21T13:41:21;11.60;97.30
47532;DHT22;33273;52.254;7.988;2023-03-21T13:48:56;11.80;94.90
47532;DHT22;33273;52.254;7.988;2023-03-21T13:54:23;11.80;93.50
47532;DHT22;33273;52.254;7.988;2023-03-21T13:56:49;11.80;93.50
47532;DHT22;33273;52.254;7.988;2023-03-21T13:59:16;11.80;92.40
47532;DHT22;33273;52.254;7.988;2023-03-21T14:01:58;11.80;92.20
47532;DHT22;33273;52.254;7.988;2023-03-21T14:04:25;11.80;91.60
47532;DHT22;33273;52.254;7.988;2023-03-21T14:07:02;11.80;91.40
47532;DHT22;33273;52.254;7.988;2023-03-21T14:09:34;11.70;91.70
47532;DHT22;33273;52.254;7.988;2023-03-21T14:12:00;11.80;91.60
47532;DHT22;33273;52.254;7.988;2023-03-21T14:14:36;11.80;90.90
47532;DHT22;33273;52.254;7.988;2023-03-21T14:19:50;11.80;89.10
47532;DHT22;33273;52.254;7.988;2023-03-21T14:22:16;11.80;90.50
47532;DHT22;33273;52.254;7.988;2023-03-21T14:24:46;11.80;89.90
47532;DHT22;33273;52.254;7.988;2023-03-21T14:27:11;11.90;89.50
47532;DHT22;33273;52.254;7.988;2023-03-21T14:29:37;11.80;88.10
47532;DHT22;33273;52.254;7.988;2023-03-21T14:32:03;11.80;88.60
47532;DHT22;33273;52.254;7.988;2023-03-21T14:34:31;11.70;89.30
47532;DHT22;33273;52.254;7.988;2023-03-21T14:36:57;11.80;89.30
47532;DHT22;33273;52.254;7.988;2023-03-21T14:39:32;11.70;89.50
47532;DHT22;33273;52.254;7.988;2023-03-21T14:42:03;11.80;89.20
47532;DHT22;33273;52.254;7.988;2023-03-21T14:44:39;11.80;88.90
47532;DHT22;33273;52.254;7.988;2023-03-21T14:49:33;11.80;90.10
47532;DHT22;33273;52.254;7.988;2023-03-21T14:52:03;11.80;89.80
47532;DHT22;33273;52.254;7.988;2023-03-21T14:54:30;11.80;90.10
47532;DHT22;33273;52.254;7.988;2023-03-21T14:57:00;11.70;89.80
47532;DHT22;33273;52.254;7.988;2023-03-21T14:59:31;11.70;90.60
47532;DHT22;33273;52.254;7.988;2023-03-21T15:01:58;11.80;91.20
47532;DHT22;33273;52.254;7.988;2023-03-21T15:04:24;11.80;91.00
47532;DHT22;33273;52.254;7.988;2023-03-21T15:06:55;11.80;90.70
47532;DHT22;33273;52.254;7.988;2023-03-21T15:09:22;11.70;90.90
47532;DHT22;33273;52.254;7.988;2023-03-21T15:11:49;11.80;91.60
47532;DHT22;33273;52.254;7.988;2023-03-21T15:14:15;11.80;91.40
47532;DHT22;33273;52.254;7.988;2023-03-21T15:16:41;11.80;91.30
47532;DHT22;33273;52.254;7.988;2023-03-21T15:19:08;11.90;91.30
47532;DHT22;33273;52.254;7.988;2023-03-21T15:21:38;11.90;91.60
47532;DHT22;33273;52.254;7.988;2023-03-21T15:26:38;12.00;90.70
47532;DHT22;33273;52.254;7.988;2023-03-21T15:29:04;11.90;89.50
47532;DHT22;33273;52.254;7.988;2023-03-21T15:31:33;11.90;89.30
47532;DHT22;33273;52.254;7.988;2023-03-21T15:33:59;11.90;89.20
47532;DHT22;33273;52.254;7.988;2023-03-21T15:36:27;12.00;88.90
47532;DHT22;33273;52.254;7.988;2023-03-21T15:38:54;12.00;87.70
47532;DHT22;33273;52.254;7.988;2023-03-21T15:43:53;12.00;88.10
47532;DHT22;33273;52.254;7.988;2023-03-21T15:46:32;12.10;88.20
47532;DHT22;33273;52.254;7.988;2023-03-21T15:51:46;12.10;86.50
47532;DHT22;33273;52.254;7.988;2023-03-21T15:54:14;12.20;84.40
47532;DHT22;33273;52.254;7.988;2023-03-21T15:56:43;12.10;82.50
47532;DHT22;33273;52.254;7.988;2023-03-21T15:59:14;12.10;82.00
47532;DHT22;33273;52.254;7.988;2023-03-21T16:01:46;12.20;81.30
47532;DHT22;33273;52.254;7.988;2023-03-21T16:04:12;12.20;80.40
47532;DHT22;33273;52.254;7.988;2023-03-21T16:06:49;12.10;80.00
47532;DHT22;33273;52.254;7.988;2023-03-21T16:09:16;12.10;78.60
47532;DHT22;33273;52.254;7.988;2023-03-21T16:14:14;12.00;77.60
47532;DHT22;33273;52.254;7.988;2023-03-21T16:16:40;12.00;75.70
47532;DHT22;33273;52.254;7.988;2023-03-21T16:19:05;11.90;75.80
47532;DHT22;33273;52.254;7.988;2023-03-21T16:21:31;11.90;75.80
47532;DHT22;33273;52.254;7.988;2023-03-21T16:23:59;11.90;75.90
47532;DHT22;33273;52.254;7.988;2023-03-21T16:26:26;11.90;76.10
47532;DHT22;33273;52.254;7.988;2023-03-21T16:28:52;11.90;75.10
47532;DHT22;33273;52.254;7.988;2023-03-21T16:31:19;11.90;75.40
47532;DHT22;33273;52.254;7.988;2023-03-21T16:33:48;12.00;74.40
47532;DHT22;33273;52.254;7.988;2023-03-21T16:36:15;12.00;71.30
47532;DHT22;33273;52.254;7.988;2023-03-21T16:38:43;12.00;72.00
47532;DHT22;33273;52.254;7.988;2023-03-21T16:41:10;12.00;72.00
47532;DHT22;33273;52.254;7.988;2023-03-21T16:43:36;12.00;70.30
47532;DHT22;33273;52.254;7.988;2023-03-21T16:46:17;12.00;70.30
47532;DHT22;33273;52.254;7.988;2023-03-21T16:48:44;12.00;70.60
47532;DHT22;33273;52.254;7.988;2023-03-21T16:53:39;12.00;69.60
47532;DHT22;33273;52.254;7.988;2023-03-21T16:56:09;12.00;69.80
47532;DHT22;33273;52.254;7.988;2023-03-21T16:58:37;12.00;70.10
47532;DHT22;33273;52.254;7.988;2023-03-21T17:01:03;11.90;69.70
47532;DHT22;33273;52.254;7.988;2023-03-21T17:03:29;11.90;69.20
47532;DHT22;33273;52.254;7.988;2023-03-21T17:05:54;11.90;69.20
47532;DHT22;33273;52.254;7.988;2023-03-21T17:08:21;11.80;68.20
47532;DHT22;33273;52.254;7.988;2023-03-21T17:10:47;11.80;68.50
47532;DHT22;33273;52.254;7.988;2023-03-21T17:13:13;11.70;69.00
47532;DHT22;33273;52.254;7.988;2023-03-21T17:15:39;11.70;68.80
47532;DHT22;33273;52.254;7.988;2023-03-21T17:18:05;11.60;68.70
47532;DHT22;33273;52.254;7.988;2023-03-21T17:20:32;11.60;69.10
47532;DHT22;33273;52.254;7.988;2023-03-21T17:22:58;11.50;69.30
47532;DHT22;33273;52.254;7.988;2023-03-21T17:25:24;11.50;69.90
47532;DHT22;33273;52.254;7.988;2023-03-21T17:27:50;11.40;70.00
47532;DHT22;33273;52.254;7.988;2023-03-21T17:30:20;11.40;70.00